Time;durP1;ratioP1;P1;durP2;ratioP2;P2;SDS_P1;SDS_P2;PMS_P1;PMS_P2;Temp;Humidity;BMP_temperature;BMP_pressure;BME280_temperature;BME280_humidity;BME280_pressure;Samples;Min_cycle;Max_cycle;Signal;HPM_P1;HPM_P2
2021/09/06 01:48:04;;;;;;;12.10;10.80;;;;;;;15.52;73.01;99433.16;2619384;47;20030;-63
2021/09/06 01:50:42;;;;;;;12.40;10.32;;;;;;;15.53;73.32;99429.44;2621665;54;20030;-63
2021/09/06 01:53:13;;;;;;;14.27;10.10;;;;;;;15.53;73.16;99435.59;2620773;47;20062;-63
2021/09/06 01:55:46;;;;;;;13.97;10.93;;;;;;;15.54;73.33;99434.56;2619970;51;20581;-64
2021/09/06 01:58:17;;;;;;;14.57;12.00;;;;;;;15.54;73.16;99433.75;2618763;54;20294;-64
2021/09/06 02:00:47;;;;;;;13.85;11.30;;;;;;;15.50;72.92;99438.66;2618295;54;20057;-63
2021/09/06 02:03:22;;;;;;;13.18;11.43;;;;;;;15.48;73.07;99435.41;2619320;39;20450;-64
2021/09/06 02:05:55;;;;;;;12.88;10.60;;;;;;;15.48;73.52;99437.25;2618152;54;20031;-64
2021/09/06 02:08:36;;;;;;;14.65;11.50;;;;;;;15.45;73.70;99435.00;2618628;54;20129;-64
2021/09/06 02:11:06;;;;;;;13.05;10.85;;;;;;;15.43;73.56;99437.03;2618380;47;20034;-64
2021/09/06 02:13:36;;;;;;;15.25;11.32;;;;;;;15.43;73.21;99439.72;2622510;51;20035;-64
2021/09/06 02:16:07;;;;;;;13.05;10.88;;;;;;;15.38;73.42;99432.34;2622173;54;20110;-64
2021/09/06 02:18:43;;;;;;;12.50;11.20;;;;;;;15.38;73.79;99432.34;2619543;54;20029;-64
2021/09/06 02:21:13;;;;;;;11.82;10.63;;;;;;;15.36;74.03;99435.22;2619145;54;20033;-63
2021/09/06 02:23:46;;;;;;;12.38;10.25;;;;;;;15.42;73.58;99432.75;2618989;51;20560;-64
2021/09/06 02:26:16;;;;;;;13.02;10.93;;;;;;;15.41;72.94;99431.94;2619329;54;20027;-63
2021/09/06 02:28:48;;;;;;;13.55;11.15;;;;;;;15.41;73.49;99429.28;2618006;54;20034;-63
2021/09/06 02:31:19;;;;;;;12.13;10.82;;;;;;;15.43;73.25;99429.06;2618967;54;20026;-63
2021/09/06 02:34:08;;;;;;;13.50;11.82;;;;;;;15.32;72.92;99439.34;2618075;47;20026;-63
2021/09/06 02:36:42;;;;;;;14.60;10.77;;;;;;;15.31;73.51;99437.69;2618202;47;20553;-64
2021/09/06 02:39:12;;;;;;;11.75;10.48;;;;;;;15.30;73.03;99444.03;2617700;54;20022;-64
2021/09/06 02:41:42;;;;;;;11.57;10.38;;;;;;;15.27;73.26;99433.00;2617759;46;20036;-63
2021/09/06 02:44:12;;;;;;;14.13;11.07;;;;;;;15.28;73.35;99431.97;2617869;54;20042;-64
2021/09/06 02:46:42;;;;;;;13.18;10.88;;;;;;;15.27;73.04;99430.34;2618492;54;20031;-66
2021/09/06 02:49:15;;;;;;;14.38;10.80;;;;;;;15.24;72.99;99438.72;2617609;54;20027;-64
2021/09/06 02:51:45;;;;;;;12.85;11.43;;;;;;;15.16;73.09;99433.63;2617827;47;20034;-63
2021/09/06 02:54:16;;;;;;;15.88;11.65;;;;;;;15.08;73.10;99438.13;2618248;39;20477;-64
2021/09/06 02:56:46;;;;;;;14.82;12.52;;;;;;;15.02;73.56;99438.97;2617831;47;20082;-64
2021/09/06 02:59:17;;;;;;;16.77;11.23;;;;;;;14.93;73.84;99439.38;2617388;54;20548;-63
2021/09/06 03:01:48;;;;;;;13.32;11.88;;;;;;;14.80;74.16;99440.19;2617648;47;20118;-64
2021/09/06 03:04:21;;;;;;;13.27;10.77;;;;;;;14.79;74.20;99438.56;2617631;54;20558;-63
2021/09/06 03:06:51;;;;;;;13.95;10.85;;;;;;;14.81;73.96;99431.16;2617780;54;20095;-64
2021/09/06 03:09:23;;;;;;;13.73;12.15;;;;;;;14.82;73.91;99435.50;2617693;47;20039;-64
2021/09/06 03:11:54;;;;;;;14.00;11.60;;;;;;;14.85;73.89;99443.03;2618479;39;20429;-63
2021/09/06 03:14:24;;;;;;;17.48;11.55;;;;;;;14.86;74.28;99445.53;2617629;54;20041;-64
2021/09/06 03:16:54;;;;;;;14.90;10.93;;;;;;;14.84;73.78;99436.91;2617525;47;20038;-64
2021/09/06 03:19:27;;;;;;;12.55;11.25;;;;;;;14.84;74.04;99444.06;2617211;47;20034;-64
2021/09/06 03:22:00;;;;;;;12.95;11.15;;;;;;;14.75;73.77;99435.47;2617410;47;20059;-64
2021/09/06 03:24:29;;;;;;;13.45;11.25;;;;;;;14.72;74.23;99437.72;2617723;54;20022;-64
2021/09/06 03:26:59;;;;;;;14.50;11.10;;;;;;;14.67;74.07;99437.53;2617753;54;20545;-63
2021/09/06 03:29:29;;;;;;;14.07;12.15;;;;;;;14.65;74.08;99434.22;2617132;54;20045;-64
2021/09/06 03:31:59;;;;;;;13.35;11.27;;;;;;;14.62;74.16;99432.81;2617931;39;20434;-63
2021/09/06 03:34:35;;;;;;;15.23;12.40;;;;;;;14.61;74.65;99433.81;2617656;47;20042;-63
2021/09/06 03:37:08;;;;;;;15.80;12.18;;;;;;;14.59;74.55;99430.56;2617806;47;20026;-64
2021/09/06 03:39:38;;;;;;;14.50;11.82;;;;;;;14.55;74.20;99429.31;2617799;54;20114;-64
2021/09/06 03:42:08;;;;;;;13.57;11.45;;;;;;;14.54;74.32;99433.81;2617391;54;20022;-64
2021/09/06 03:44:44;;;;;;;13.07;11.68;;;;;;;14.54;74.51;99433.00;2617486;47;20050;-66
2021/09/06 03:47:14;;;;;;;12.23;11.02;;;;;;;14.57;74.55;99435.25;2617439;54;20525;-64
2021/09/06 03:49:46;;;;;;;13.18;11.48;;;;;;;14.56;74.40;99433.59;2617347;47;20034;-63
2021/09/06 03:52:16;;;;;;;14.18;11.27;;;;;;;14.54;74.43;99428.50;2618396;54;20031;-64
2021/09/06 03:54:46;;;;;;;12.73;10.90;;;;;;;14.49;74.39;99425.63;2619171;54;20034;-64
2021/09/06 03:57:16;;;;;;;13.02;11.05;;;;;;;14.46;74.12;99431.31;2620124;39;20429;-65
2021/09/06 03:59:46;;;;;;;14.43;11.23;;;;;;;14.44;74.26;99429.88;2619525;54;20533;-64
2021/09/06 04:02:16;;;;;;;13.20;11.25;;;;;;;14.39;74.43;99430.47;2619577;54;20053;-65
2021/09/06 04:04:50;;;;;;;12.85;11.43;;;;;;;14.33;74.69;99428.66;2618832;47;20050;-65
2021/09/06 04:07:20;;;;;;;14.43;11.77;;;;;;;14.31;74.59;99433.34;2618729;54;20044;-64
2021/09/06 04:09:54;;;;;;;14.38;11.40;;;;;;;14.33;74.37;99434.78;2618304;47;20069;-64
2021/09/06 04:12:24;;;;;;;14.95;12.13;;;;;;;14.29;74.58;99436.22;2619334;54;20071;-64
2021/09/06 04:14:54;;;;;;;13.50;11.18;;;;;;;14.28;74.54;99439.88;2619447;39;20442;-64
2021/09/06 04:17:24;;;;;;;12.65;11.30;;;;;;;14.30;74.46;99440.50;2618375;47;20041;-64
2021/09/06 04:19:57;;;;;;;14.75;12.50;;;;;;;14.28;74.65;99436.38;2618118;47;20038;-64
2021/09/06 04:22:27;;;;;;;14.52;12.05;;;;;;;14.24;74.34;99441.28;2618652;46;20034;-64
2021/09/06 04:24:58;;;;;;;14.93;11.23;;;;;;;14.18;74.64;99443.94;2618535;54;20026;-64
2021/09/06 04:27:29;;;;;;;13.10;11.15;;;;;;;14.16;74.86;99448.63;2618519;54;20031;-65
2021/09/06 04:29:58;;;;;;;14.88;11.70;;;;;;;14.16;74.65;99446.78;2620341;54;20125;-65
2021/09/06 04:32:29;;;;;;;15.70;11.63;;;;;;;14.16;74.59;99451.28;2619342;54;20030;-65
2021/09/06 04:35:02;;;;;;;16.35;11.52;;;;;;;14.18;74.79;99450.06;2618396;47;20056;-65
2021/09/06 04:37:34;;;;;;;15.27;11.52;;;;;;;14.29;74.38;99459.31;2618427;54;20030;-64
2021/09/06 04:40:10;;;;;;;15.15;11.48;;;;;;;14.22;74.59;99463.78;2617728;54;20038;-64
2021/09/06 04:42:42;;;;;;;13.97;11.37;;;;;;;14.25;74.88;99468.72;2618205;51;20053;-64
2021/09/06 04:45:13;;;;;;;15.82;11.40;;;;;;;14.27;74.71;99469.31;2618340;47;20078;-64
2021/09/06 04:47:45;;;;;;;16.63;11.50;;;;;;;14.26;74.63;99468.50;2618686;47;20034;-64
2021/09/06 04:50:18;;;;;;;13.60;11.45;;;;;;;14.27;74.23;99478.13;2618798;47;20050;-64
2021/09/06 04:52:48;;;;;;;13.00;11.38;;;;;;;14.27;74.02;99471.97;2618601;51;20023;-65
2021/09/06 04:55:18;;;;;;;15.60;12.15;;;;;;;14.24;74.03;99478.50;2618965;54;20034;-65
2021/09/06 04:57:48;;;;;;;14.27;12.73;;;;;;;14.17;74.12;99475.03;2618760;54;20593;-65
2021/09/06 05:00:18;;;;;;;15.00;12.38;;;;;;;14.16;74.50;99475.22;2618986;54;20039;-65
2021/09/06 05:02:49;;;;;;;15.88;13.65;;;;;;;14.12;74.46;99486.28;2618600;46;20065;-64
2021/09/06 05:05:22;;;;;;;13.18;11.77;;;;;;;14.09;74.47;99485.84;2618803;54;20125;-65
2021/09/06 05:07:57;;;;;;;13.43;11.30;;;;;;;14.08;74.53;99489.50;2618151;54;20541;-65
2021/09/06 05:10:28;;;;;;;14.02;12.63;;;;;;;14.08;74.14;99489.50;2618880;39;20422;-65
2021/09/06 05:12:58;;;;;;;14.77;11.75;;;;;;;14.04;74.09;99491.75;2619073;39;20446;-65
2021/09/06 05:15:34;;;;;;;13.77;12.05;;;;;;;14.02;74.29;99490.31;2618269;47;20030;-63
2021/09/06 05:18:04;;;;;;;17.05;12.82;;;;;;;14.01;74.17;99494.00;2618251;46;20042;-71
2021/09/06 05:20:36;;;;;;;14.55;11.98;;;;;;;14.02;74.55;99495.63;2618385;54;20968;-65
2021/09/06 05:23:07;;;;;;;12.57;11.18;;;;;;;14.08;74.51;99500.97;2618682;47;20038;-65
2021/09/06 05:25:38;;;;;;;17.20;11.90;;;;;;;14.18;74.19;99499.78;2621480;54;20034;-64
2021/09/06 05:28:08;;;;;;;13.70;11.23;;;;;;;14.20;73.79;99498.53;2622725;31;20514;-64
2021/09/06 05:30:38;;;;;;;12.88;11.15;;;;;;;14.18;73.61;99503.25;2622525;47;20038;-64
2021/09/06 05:33:09;;;;;;;14.60;11.20;;;;;;;14.19;73.82;99496.91;2622309;54;20041;-64
2021/09/06 05:35:41;;;;;;;14.02;11.32;;;;;;;14.26;73.95;99496.94;2621484;47;20146;-64
2021/09/06 05:38:11;;;;;;;13.98;11.52;;;;;;;14.32;73.86;99504.13;2621940;54;21265;-63
2021/09/06 05:41:19;;;;;;;;;;;;;;;14.36;73.70;99503.50;2622699;54;20049;-66
2021/09/06 05:43:51;;;;;;;15.85;11.73;;;;;;;14.29;73.83;99521.31;2622281;47;20038;-64
2021/09/06 05:46:22;;;;;;;14.90;11.52;;;;;;;14.29;74.06;99509.84;2622698;39;20564;-64
2021/09/06 05:48:52;;;;;;;15.10;11.32;;;;;;;14.30;73.52;99520.28;2621698;47;20026;-63
2021/09/06 05:51:27;;;;;;;16.27;12.00;;;;;;;14.27;74.11;99519.84;2620003;47;20035;-64
2021/09/06 05:54:02;;;;;;;13.23;10.90;;;;;;;14.31;73.75;99521.91;2619136;54;20030;-64
2021/09/06 05:56:32;;;;;;;18.40;12.32;;;;;;;14.42;73.97;99517.06;2619225;54;20030;-66
2021/09/06 05:59:04;;;;;;;14.82;11.82;;;;;;;14.53;73.48;99524.47;2618247;47;20022;-64
2021/09/06 06:01:36;;;;;;;15.38;11.38;;;;;;;14.66;73.44;99523.69;2618454;54;20055;-64
2021/09/06 06:04:07;;;;;;;14.57;11.60;;;;;;;14.76;73.17;99527.59;2618437;54;20040;-64
2021/09/06 06:06:42;;;;;;;15.13;10.75;;;;;;;14.87;73.20;99526.19;2620628;47;20030;-64
2021/09/06 06:09:12;;;;;;;16.27;10.90;;;;;;;14.99;72.99;99529.06;2621286;47;20542;-64
2021/09/06 06:11:43;;;;;;;13.45;11.43;;;;;;;15.10;72.71;99528.44;2622241;54;20026;-64
2021/09/06 06:14:26;;;;;;;14.32;12.93;;;;;;;15.17;72.11;99539.94;2619149;46;20542;-64
2021/09/06 06:16:58;;;;;;;14.75;12.27;;;;;;;15.21;72.04;99535.03;2618439;54;20031;-64
2021/09/06 06:19:35;;;;;;;14.50;12.10;;;;;;;15.25;72.12;99534.41;2618126;54;20027;-64
2021/09/06 06:22:26;;;;;;;12.38;10.68;;;;;;;15.32;72.01;99535.22;2619662;31;20480;-65
2021/09/06 06:25:17;;;;;;;15.35;11.43;;;;;;;15.41;71.61;99543.81;2618238;54;20038;-65
2021/09/06 06:27:54;;;;;;;16.40;11.90;;;;;;;15.47;71.47;99535.03;2618070;54;20038;-64
2021/09/06 06:30:26;;;;;;;13.85;12.13;;;;;;;15.58;71.37;99542.38;2618737;54;20029;-64
2021/09/06 06:32:56;;;;;;;13.25;11.32;;;;;;;15.69;71.70;99534.81;2620103;54;20039;-65
2021/09/06 06:35:45;;;;;;;13.90;11.48;;;;;;;15.78;70.96;99538.91;2622807;54;20077;-65
2021/09/06 06:38:17;;;;;;;12.63;11.02;;;;;;;15.95;71.26;99539.25;2622053;47;20031;-65
2021/09/06 06:40:54;;;;;;;15.48;12.45;;;;;;;16.11;70.58;99538.81;2622300;54;20118;-63
2021/09/06 06:43:30;;;;;;;16.60;12.82;;;;;;;16.22;70.50;99534.66;2618404;54;20038;-64
2021/09/06 06:46:00;;;;;;;20.33;16.02;;;;;;;16.29;69.86;99538.94;2618140;54;20577;-64
2021/09/06 06:48:32;;;;;;;26.60;16.55;;;;;;;16.30;70.01;99543.25;2617921;47;20033;-64
2021/09/06 06:51:20;;;;;;;27.98;16.20;;;;;;;16.39;69.59;99537.66;2617978;47;20034;-64
2021/09/06 06:53:53;;;;;;;17.58;12.48;;;;;;;16.54;69.31;99532.88;2618165;47;20054;-64
2021/09/06 06:56:27;;;;;;;14.85;11.45;;;;;;;16.67;68.89;99548.81;2617901;47;20039;-64
2021/09/06 06:59:03;;;;;;;15.60;12.63;;;;;;;16.77;68.82;99541.19;2617613;54;20050;-64
2021/09/06 07:01:32;;;;;;;16.50;12.38;;;;;;;16.83;68.44;99543.00;2617997;54;20070;-64
2021/09/06 07:04:04;;;;;;;16.17;11.57;;;;;;;16.88;68.35;99538.88;2618028;51;20045;-64
2021/09/06 07:06:37;;;;;;;;;;;;;;;16.95;67.95;99542.31;2618525;47;20027;-64
2021/09/06 07:09:10;;;;;;;17.95;10.95;;;;;;;16.96;67.68;99544.78;2618725;31;20398;-63
2021/09/06 07:11:40;;;;;;;17.75;13.27;;;;;;;17.01;67.87;99541.44;2618465;50;20601;-64
2021/09/06 07:14:10;;;;;;;22.77;16.17;;;;;;;17.11;67.90;99541.81;2618604;54;20030;-63
2021/09/06 07:16:40;;;;;;;16.88;13.52;;;;;;;17.22;67.60;99546.41;2618620;47;20053;-64
2021/09/06 07:19:10;;;;;;;20.73;14.57;;;;;;;17.28;67.06;99542.06;2618286;54;20588;-64
2021/09/06 07:21:40;;;;;;;22.45;13.93;;;;;;;17.37;67.31;99550.63;2619186;39;20468;-64
2021/09/06 07:24:13;;;;;;;19.13;13.90;;;;;;;17.47;66.84;99550.94;2619065;39;20452;-64
2021/09/06 07:26:43;;;;;;;21.27;14.40;;;;;;;17.56;66.84;99553.13;2618464;54;20026;-64
2021/09/06 07:29:13;;;;;;;26.80;16.23;;;;;;;17.63;66.51;99557.59;2618160;47;20050;-63
2021/09/06 07:31:43;;;;;;;19.15;14.73;;;;;;;17.74;66.66;99554.19;2618591;47;20031;-63
2021/09/06 07:34:13;;;;;;;17.38;13.68;;;;;;;17.84;66.22;99554.56;2619239;39;20434;-63
2021/09/06 07:36:43;;;;;;;19.15;14.52;;;;;;;17.96;65.66;99555.47;2618437;54;20031;-63
2021/09/06 07:39:16;;;;;;;19.25;13.55;;;;;;;18.02;66.09;99557.22;2617924;47;20573;-63
2021/09/06 07:41:47;;;;;;;27.00;20.70;;;;;;;18.10;65.31;99558.78;2618170;54;20030;-63
2021/09/06 07:44:17;;;;;;;19.77;16.23;;;;;;;18.15;65.28;99563.47;2618150;54;20045;-63
2021/09/06 07:46:48;;;;;;;18.92;15.73;;;;;;;18.22;65.54;99559.69;2619017;47;20079;-69
2021/09/06 07:49:18;;;;;;;18.35;13.77;;;;;;;18.35;65.24;99566.72;2624921;54;20030;-71
2021/09/06 07:51:52;;;;;;;19.60;14.57;;;;;;;18.49;65.04;99565.53;2624408;47;20078;-73
2021/09/06 07:54:26;;;;;;;16.17;13.35;;;;;;;18.64;64.82;99567.81;2624626;51;20030;-74
2021/09/06 07:56:58;;;;;;;19.13;13.98;;;;;;;18.74;64.55;99564.63;2624076;54;20086;-73
2021/09/06 07:59:32;;;;;;;15.00;13.05;;;;;;;18.90;63.94;99565.81;2623708;47;20026;-75
2021/09/06 08:02:02;;;;;;;43.90;38.95;;;;;;;19.00;63.52;99571.47;2623983;47;20094;-74
2021/09/06 08:04:34;;;;;;;19.10;15.52;;;;;;;19.16;63.02;99575.34;2623041;54;20027;-74
2021/09/06 08:07:06;;;;;;;15.05;13.10;;;;;;;19.29;63.12;99575.13;2622381;47;20079;-73
2021/09/06 08:09:38;;;;;;;15.68;13.70;;;;;;;19.41;62.22;99577.84;2621223;54;20663;-73
2021/09/06 08:12:10;;;;;;;14.68;12.80;;;;;;;19.51;62.37;99580.75;2618367;54;20589;-73
2021/09/06 08:14:40;;;;;;;17.85;12.43;;;;;;;19.59;62.51;99580.41;2618545;39;20478;-73
2021/09/06 08:17:11;;;;;;;14.32;11.68;;;;;;;19.70;61.82;99584.19;2623576;47;20045;-73
2021/09/06 08:19:42;;;;;;;12.65;10.77;;;;;;;19.83;61.06;99580.47;2623196;47;20042;-72
2021/09/06 08:22:11;;;;;;;16.40;13.55;;;;;;;19.93;60.61;99588.75;2623325;47;20035;-74
2021/09/06 08:24:44;;;;;;;12.65;11.35;;;;;;;20.03;60.32;99595.13;2623169;54;20034;-74
2021/09/06 08:27:14;;;;;;;13.90;11.30;;;;;;;20.21;59.99;99590.69;2623124;47;20049;-74
2021/09/06 08:29:44;;;;;;;14.68;11.88;;;;;;;20.28;59.34;99592.19;2623123;54;20049;-72
2021/09/06 08:32:14;;;;;;;12.98;11.40;;;;;;;20.37;58.53;99589.97;2622590;47;20145;-72
2021/09/06 08:34:44;;;;;;;11.63;10.35;;;;;;;20.43;57.96;99594.38;2623142;54;20063;-72
2021/09/06 08:37:14;;;;;;;12.25;9.55;;;;;;;20.53;57.85;99597.31;2622754;54;20042;-72
2021/09/06 08:39:46;;;;;;;10.60;9.38;;;;;;;20.63;58.25;99588.63;2622794;54;20029;-72
2021/09/06 08:42:18;;;;;;;12.40;11.10;;;;;;;20.77;57.74;99587.28;2622543;54;20019;-72
2021/09/06 08:44:48;;;;;;;11.82;9.98;;;;;;;20.91;57.00;99581.63;2622418;51;20030;-72
2021/09/06 08:47:18;;;;;;;12.77;10.02;;;;;;;21.05;56.95;99590.19;2622202;54;20036;-72
2021/09/06 08:49:49;;;;;;;11.07;9.80;;;;;;;21.14;56.71;99594.09;2622532;54;20034;-72
2021/09/06 08:52:18;;;;;;;12.35;10.75;;;;;;;21.26;56.16;99597.56;2623154;47;20083;-72
2021/09/06 08:54:52;;;;;;;15.70;10.23;;;;;;;21.32;55.90;99591.25;2621840;47;20064;-72
2021/09/06 08:57:21;;;;;;;9.98;8.95;;;;;;;21.34;56.26;99591.00;2623007;39;20502;-72
2021/09/06 08:59:58;;;;;;;11.32;9.50;;;;;;;21.49;55.92;99600.13;2622371;54;20209;-71
2021/09/06 09:02:47;;;;;;;15.63;13.70;;;;;;;21.61;55.38;99593.84;2622859;39;20419;-73
2021/09/06 09:05:39;;;;;;;11.82;9.82;;;;;;;21.76;54.64;99599.47;2623987;31;20565;-71
2021/09/06 09:08:30;;;;;;;12.98;10.45;;;;;;;21.82;54.04;99594.97;2622584;47;20566;-71
2021/09/06 09:11:10;;;;;;;11.77;10.43;;;;;;;21.97;53.76;99596.00;2622774;47;20038;-71
2021/09/06 09:14:12;;;;;;;11.02;9.93;;;;;;;22.16;53.45;99593.84;2622624;54;20042;-71
2021/09/06 09:17:08;;;;;;;12.55;11.05;;;;;;;22.30;51.95;99602.41;2620804;47;20160;-72
2021/09/06 09:20:02;;;;;;;14.90;10.23;;;;;;;22.32;52.33;99586.78;2622001;54;20557;-73
2021/09/06 09:22:44;;;;;;;10.90;9.23;;;;;;;22.45;51.85;99585.59;2622019;46;20074;-72
2021/09/06 09:25:33;;;;;;;10.00;8.90;;;;;;;22.52;52.09;99585.41;2624088;39;20445;-72
2021/09/06 09:28:32;;;;;;;11.05;8.63;;;;;;;22.73;50.35;99581.88;2623326;54;20075;-73
2021/09/06 09:31:25;;;;;;;10.40;8.73;;;;;;;22.84;50.07;99580.13;2623673;54;20026;-71
2021/09/06 09:34:19;;;;;;;9.57;8.50;;;;;;;22.88;49.97;99575.84;2623450;54;20050;-71
2021/09/06 09:37:03;;;;;;;9.65;7.80;;;;;;;22.97;49.50;99585.94;2621790;51;20086;-72
2021/09/06 09:39:33;;;;;;;8.80;7.90;;;;;;;22.99;49.69;99583.00;2624133;54;20031;-73
2021/09/06 09:42:10;;;;;;;7.85;7.05;;;;;;;23.13;47.90;99576.09;2624636;54;20031;-73
2021/09/06 09:44:51;;;;;;;9.68;7.55;;;;;;;23.19;48.15;99572.41;2624853;31;20549;-73
2021/09/06 09:47:53;;;;;;;7.70;6.95;;;;;;;23.38;47.65;99580.09;2624007;47;20031;-73
2021/09/06 09:50:24;;;;;;;8.98;7.43;;;;;;;23.47;47.30;99573.16;2624983;39;20398;-72
2021/09/06 09:52:57;;;;;;;9.00;7.25;;;;;;;23.56;46.64;99573.50;2625366;39;20422;-72
2021/09/06 09:55:31;;;;;;;12.00;8.77;;;;;;;23.64;46.05;99573.03;2624432;54;20034;-72
2021/09/06 09:58:02;;;;;;;8.80;7.90;;;;;;;23.67;46.09;99572.50;2624198;54;20026;-73
2021/09/06 10:00:38;;;;;;;7.47;6.75;;;;;;;23.68;46.66;99568.75;2623192;47;20544;-73
2021/09/06 10:03:10;;;;;;;17.50;7.20;;;;;;;23.77;45.28;99577.19;2624410;54;20542;-73
2021/09/06 10:05:42;;;;;;;7.43;6.50;;;;;;;23.80;45.97;99572.09;2623762;54;20035;-73
2021/09/06 10:08:18;;;;;;;8.10;7.30;;;;;;;23.93;45.23;99558.13;2622105;54;20026;-72
2021/09/06 10:10:48;;;;;;;6.65;6.07;;;;;;;24.19;44.02;99566.34;2622131;54;20035;-73
2021/09/06 10:13:19;;;;;;;10.70;7.63;;;;;;;24.33;43.10;99558.53;2621840;54;20034;-72
2021/09/06 10:16:03;;;;;;;10.13;7.22;;;;;;;24.39;42.63;99562.94;2621746;54;20034;-72
2021/09/06 10:18:41;;;;;;;7.10;6.40;;;;;;;24.53;41.11;99566.75;2620893;46;20095;-72
2021/09/06 10:21:15;;;;;;;7.13;6.32;;;;;;;24.55;40.49;99561.91;2620475;47;20018;-74
2021/09/06 10:23:48;;;;;;;9.38;6.35;;;;;;;24.59;39.66;99559.50;2621427;54;20050;-73
2021/09/06 10:26:19;;;;;;;5.93;5.13;;;;;;;24.75;39.63;99557.63;2622487;54;20038;-73
2021/09/06 10:28:52;;;;;;;6.28;5.63;;;;;;;24.75;39.77;99544.94;2624421;39;20490;-72
2021/09/06 10:31:25;;;;;;;6.78;6.00;;;;;;;24.92;37.83;99550.09;2623906;54;20633;-72
2021/09/06 10:34:02;;;;;;;6.28;5.72;;;;;;;24.94;36.66;99545.22;2623582;54;20074;-73
2021/09/06 10:36:34;;;;;;;5.93;5.40;;;;;;;24.98;36.52;99549.00;2624952;54;20022;-72
2021/09/06 10:39:09;;;;;;;7.22;6.20;;;;;;;25.05;36.67;99551.44;2624443;54;20040;-72
2021/09/06 10:41:47;;;;;;;5.95;5.43;;;;;;;24.98;36.65;99550.91;2624483;54;20014;-72
2021/09/06 10:44:20;;;;;;;6.15;5.65;;;;;;;25.02;36.97;99541.16;2624888;54;20046;-72
2021/09/06 10:46:58;;;;;;;7.55;5.53;;;;;;;25.00;37.26;99540.63;2624656;54;20038;-72
2021/09/06 10:49:30;;;;;;;6.75;5.70;;;;;;;25.07;37.48;99538.47;2624571;54;20114;-72
2021/09/06 10:52:02;;;;;;;6.03;5.22;;;;;;;25.27;36.64;99537.69;2624351;54;20030;-72
2021/09/06 10:54:35;;;;;;;6.30;5.70;;;;;;;25.25;36.35;99539.84;2623949;54;20142;-72
2021/09/06 10:57:10;;;;;;;8.02;5.22;;;;;;;25.33;36.20;99542.03;2622761;54;20034;-72
2021/09/06 10:59:46;;;;;;;5.68;5.18;;;;;;;25.42;36.12;99540.38;2623268;54;20558;-72
2021/09/06 11:02:20;;;;;;;5.85;5.35;;;;;;;25.50;35.96;99539.03;2623876;54;20022;-72
2021/09/06 11:04:51;;;;;;;5.90;5.35;;;;;;;25.58;35.04;99533.06;2623746;54;20036;-72
2021/09/06 11:07:22;;;;;;;6.60;5.80;;;;;;;25.69;34.46;99538.19;2623843;54;20038;-72
2021/09/06 11:09:53;;;;;;;6.13;5.55;;;;;;;25.68;34.78;99536.56;2623329;54;20026;-72
2021/09/06 11:12:23;;;;;;;5.60;5.10;;;;;;;25.69;35.14;99532.75;2623897;54;20586;-73
2021/09/06 11:14:53;;;;;;;6.57;5.88;;;;;;;25.86;34.40;99537.91;2622254;46;20029;-73
2021/09/06 11:17:27;;;;;;;5.95;4.70;;;;;;;26.05;33.09;99531.88;2621826;54;20147;-74
2021/09/06 11:20:01;;;;;;;5.75;4.57;;;;;;;26.09;32.24;99530.25;2623504;54;20030;-73
2021/09/06 11:22:33;;;;;;;6.05;5.47;;;;;;;26.21;32.47;99533.44;2623255;54;20022;-74
2021/09/06 11:25:06;;;;;;;5.45;4.95;;;;;;;26.30;32.24;99523.66;2623599;54;20022;-74
2021/09/06 11:27:37;;;;;;;5.90;5.40;;;;;;;26.36;32.65;99524.41;2620940;46;20051;-73
2021/09/06 11:30:09;;;;;;;5.55;4.78;;;;;;;26.42;32.51;99512.47;2622277;54;20023;-74
2021/09/06 11:32:50;;;;;;;6.10;5.50;;;;;;;26.52;31.86;99515.16;2621193;51;20030;-74
2021/09/06 11:35:21;;;;;;;5.57;5.00;;;;;;;26.52;31.30;99519.75;2622758;39;20437;-73
2021/09/06 11:37:52;;;;;;;7.68;4.95;;;;;;;26.56;30.86;99512.69;2620957;54;20030;-73
2021/09/06 11:40:22;;;;;;;7.30;4.95;;;;;;;26.57;30.80;99512.41;2620132;54;20798;-74
2021/09/06 11:42:51;;;;;;;5.55;4.93;;;;;;;26.77;30.87;99513.34;2622121;54;20130;-74
2021/09/06 11:45:23;;;;;;;9.75;6.28;;;;;;;26.89;30.68;99513.81;2623825;47;20030;-74
2021/09/06 11:48:02;;;;;;;7.05;5.20;;;;;;;26.96;30.76;99519.72;2622302;51;20082;-75
2021/09/06 11:50:33;;;;;;;5.10;4.53;;;;;;;26.97;30.66;99505.06;2623236;54;20022;-73
2021/09/06 11:53:11;;;;;;;7.25;6.57;;;;;;;27.18;30.41;99516.59;2623095;54;20030;-73
2021/09/06 11:55:53;;;;;;;6.07;5.13;;;;;;;27.16;30.32;99511.47;2623829;39;20430;-73
2021/09/06 11:58:46;;;;;;;6.35;5.75;;;;;;;27.18;30.17;99513.88;2623476;54;20625;-73
2021/09/06 12:01:16;;;;;;;4.70;4.20;;;;;;;27.19;29.94;99507.38;2623181;54;20035;-74
2021/09/06 12:03:50;;;;;;;6.13;5.53;;;;;;;27.37;29.28;99497.69;2622122;54;20046;-73
2021/09/06 12:06:21;;;;;;;;;;;;;;;27.47;29.96;99497.59;2621744;39;20139;-73
2021/09/06 12:08:55;;;;;;;6.95;4.80;;;;;;;27.56;28.72;99498.59;2621243;54;19954;-73
2021/09/06 12:11:46;;;;;;;5.28;4.78;;;;;;;27.74;28.40;99507.13;2620584;47;20026;-73
2021/09/06 12:14:16;;;;;;;5.43;4.70;;;;;;;27.77;28.47;99503.84;2621220;47;20071;-73
2021/09/06 12:16:46;;;;;;;6.80;5.00;;;;;;;27.86;29.00;99504.81;2621573;47;20094;-73
2021/09/06 12:19:23;;;;;;;6.90;5.47;;;;;;;28.03;28.59;99510.56;2621740;54;20035;-72
2021/09/06 12:21:53;;;;;;;5.93;4.55;;;;;;;28.06;28.72;99509.19;2620356;54;20034;-72
2021/09/06 12:24:25;;;;;;;6.10;4.57;;;;;;;28.08;28.71;99510.50;2620041;54;20046;-72
2021/09/06 12:26:56;;;;;;;4.90;4.50;;;;;;;28.18;28.06;99509.59;2620213;47;20027;-72
2021/09/06 12:29:31;;;;;;;6.30;4.70;;;;;;;28.21;28.25;99516.31;2620214;47;20041;-72
2021/09/06 12:32:01;;;;;;;5.30;4.80;;;;;;;28.12;28.11;99513.44;2619983;54;20054;-72
2021/09/06 12:34:35;;;;;;;6.75;5.05;;;;;;;27.98;28.45;99509.84;2620563;54;20026;-72
2021/09/06 12:37:06;;;;;;;4.90;4.50;;;;;;;27.90;29.29;99501.22;2623119;54;20104;-72
2021/09/06 12:39:38;;;;;;;5.65;5.00;;;;;;;28.11;28.25;99509.13;2621477;54;20041;-72
2021/09/06 12:42:09;;;;;;;5.20;4.60;;;;;;;28.17;27.67;99513.41;2620507;54;20034;-72
2021/09/06 12:44:38;;;;;;;4.75;4.35;;;;;;;28.21;26.92;99506.28;2622517;54;20026;-73
2021/09/06 12:47:09;;;;;;;4.50;4.10;;;;;;;28.19;27.28;99511.19;2619992;39;20085;-71
2021/09/06 12:49:42;;;;;;;5.10;4.40;;;;;;;28.35;27.55;99509.91;2621053;51;20155;-72
2021/09/06 12:52:11;;;;;;;5.20;4.53;;;;;;;28.48;27.18;99507.59;2621943;54;20023;-72
2021/09/06 12:54:43;;;;;;;4.80;4.30;;;;;;;28.46;27.22;99505.16;2620560;47;20038;-72
2021/09/06 12:57:15;;;;;;;8.23;4.25;;;;;;;28.41;26.43;99501.69;2620389;54;20037;-72
2021/09/06 12:59:45;;;;;;;3.85;3.55;;;;;;;28.17;26.98;99497.09;2620752;39;20416;-72
2021/09/06 13:02:15;;;;;;;4.65;4.03;;;;;;;28.20;27.32;99493.78;2621905;54;20046;-72
2021/09/06 13:04:47;;;;;;;4.75;4.00;;;;;;;28.28;26.78;99493.13;2621318;54;20041;-72
2021/09/06 13:07:17;;;;;;;5.57;4.72;;;;;;;28.25;26.78;99487.47;2622742;54;20039;-72
2021/09/06 13:09:46;;;;;;;5.20;4.00;;;;;;;28.29;27.31;99486.63;2620222;54;20026;-72
2021/09/06 13:12:16;;;;;;;9.18;4.90;;;;;;;28.40;26.75;99492.72;2622800;39;20415;-72
2021/09/06 13:14:46;;;;;;;5.10;4.25;;;;;;;28.33;27.15;99487.66;2622388;54;20042;-72
2021/09/06 13:17:16;;;;;;;6.78;4.97;;;;;;;28.45;27.26;99484.50;2621881;47;20030;-73
2021/09/06 13:19:48;;;;;;;5.72;4.80;;;;;;;28.50;27.94;99492.59;2623236;39;20466;-73
2021/09/06 13:22:19;;;;;;;7.07;5.55;;;;;;;28.30;28.53;99488.22;2622531;54;20030;-73
2021/09/06 13:24:49;;;;;;;5.25;4.75;;;;;;;27.98;28.84;99474.53;2622858;54;20034;-73
2021/09/06 13:27:19;;;;;;;5.88;5.35;;;;;;;28.04;28.52;99479.56;2622280;54;20034;-73
2021/09/06 13:29:49;;;;;;;4.90;4.50;;;;;;;28.06;28.82;99485.53;2621638;54;20031;-73
2021/09/06 13:32:20;;;;;;;6.00;4.80;;;;;;;28.10;28.80;99481.16;2620715;54;20548;-72
2021/09/06 13:34:53;;;;;;;6.45;5.32;;;;;;;28.06;28.14;99477.38;2620933;54;20030;-72
2021/09/06 13:37:22;;;;;;;5.40;4.90;;;;;;;28.07;28.48;99473.56;2620947;54;20042;-72
2021/09/06 13:39:52;;;;;;;5.80;5.22;;;;;;;27.94;28.52;99479.72;2620577;54;20029;-73